sensor_id;sensor_type;location;lat;lon;timestamp;temperature;humidity
21563;DHT22;10942;47.894;11.424;2023-02-01T00:00:12;3.70;99.90
21563;DHT22;10942;47.894;11.424;2023-02-01T00:02:38;3.70;99.90
21563;DHT22;10942;47.894;11.424;2023-02-01T00:05:09;3.70;99.90
21563;DHT22;10942;47.894;11.424;2023-02-01T00:07:36;3.70;99.90
21563;DHT22;10942;47.894;11.424;2023-02-01T00:10:03;3.70;99.90
21563;DHT22;10942;47.894;11.424;2023-02-01T00:12:30;3.60;99.90
21563;DHT22;10942;47.894;11.424;2023-02-01T00:14:55;3.60;99.90
21563;DHT22;10942;47.894;11.424;2023-02-01T00:17:21;3.60;99.90
21563;DHT22;10942;47.894;11.424;2023-02-01T00:19:47;3.60;99.90
21563;DHT22;10942;47.894;11.424;2023-02-01T00:22:12;3.60;99.90
21563;DHT22;10942;47.894;11.424;2023-02-01T00:24:38;3.60;99.90
21563;DHT22;10942;47.894;11.424;2023-02-01T00:27:04;3.60;99.90
21563;DHT22;10942;47.894;11.424;2023-02-01T00:29:29;3.60;99.90
21563;DHT22;10942;47.894;11.424;2023-02-01T00:31:55;3.60;99.90
21563;DHT22;10942;47.894;11.424;2023-02-01T00:34:21;3.60;99.90
21563;DHT22;10942;47.894;11.424;2023-02-01T00:36:47;3.60;99.90
21563;DHT22;10942;47.894;11.424;2023-02-01T00:39:15;3.50;99.90
21563;DHT22;10942;47.894;11.424;2023-02-01T00:41:40;3.50;99.90
21563;DHT22;10942;47.894;11.424;2023-02-01T00:44:07;3.60;99.90
21563;DHT22;10942;47.894;11.424;2023-02-01T00:46:32;3.60;99.90
21563;DHT22;10942;47.894;11.424;2023-02-01T00:48:58;3.60;99.90
21563;DHT22;10942;47.894;11.424;2023-02-01T00:51:27;3.60;99.90
21563;DHT22;10942;47.894;11.424;2023-02-01T00:53:54;3.70;99.90
21563;DHT22;10942;47.894;11.424;2023-02-01T00:56:20;3.70;99.90
21563;DHT22;10942;47.894;11.424;2023-02-01T00:58:46;3.60;99.90
21563;DHT22;10942;47.894;11.424;2023-02-01T01:01:15;3.60;99.90
21563;DHT22;10942;47.894;11.424;2023-02-01T01:03:43;3.70;99.90
21563;DHT22;10942;47.894;11.424;2023-02-01T01:06:12;3.60;99.90
21563;DHT22;10942;47.894;11.424;2023-02-01T01:08:39;3.60;99.90
21563;DHT22;10942;47.894;11.424;2023-02-01T01:11:17;3.60;99.90
21563;DHT22;10942;47.894;11.424;2023-02-01T01:13:45;3.50;99.90
21563;DHT22;10942;47.894;11.424;2023-02-01T01:16:12;3.50;99.90
21563;DHT22;10942;47.894;11.424;2023-02-01T01:18:37;3.50;99.90
21563;DHT22;10942;47.894;11.424;2023-02-01T01:21:07;3.50;99.90
21563;DHT22;10942;47.894;11.424;2023-02-01T01:23:34;3.50;99.90
21563;DHT22;10942;47.894;11.424;2023-02-01T01:26:00;3.50;99.90
21563;DHT22;10942;47.894;11.424;2023-02-01T01:28:26;3.50;99.90
21563;DHT22;10942;47.894;11.424;2023-02-01T01:30:52;3.50;99.90
21563;DHT22;10942;47.894;11.424;2023-02-01T01:33:18;3.50;99.90
21563;DHT22;10942;47.894;11.424;2023-02-01T01:35:43;3.60;99.90
21563;DHT22;10942;47.894;11.424;2023-02-01T01:38:10;3.60;99.90
21563;DHT22;10942;47.894;11.424;2023-02-01T01:40:37;3.70;99.90
21563;DHT22;10942;47.894;11.424;2023-02-01T01:43:24;3.60;99.90
21563;DHT22;10942;47.894;11.424;2023-02-01T01:45:52;3.50;99.90
21563;DHT22;10942;47.894;11.424;2023-02-01T01:48:25;3.50;99.90
21563;DHT22;10942;47.894;11.424;2023-02-01T01:51:03;3.50;99.90
21563;DHT22;10942;47.894;11.424;2023-02-01T01:53:35;3.50;99.90
21563;DHT22;10942;47.894;11.424;2023-02-01T01:56:03;3.50;99.90
21563;DHT22;10942;47.894;11.424;2023-02-01T01:58:30;3.50;99.90
21563;DHT22;10942;47.894;11.424;2023-02-01T02:00:58;3.50;99.90
21563;DHT22;10942;47.894;11.424;2023-02-01T02:03:32;3.60;99.90
21563;DHT22;10942;47.894;11.424;2023-02-01T02:06:02;3.60;99.90
21563;DHT22;10942;47.894;11.424;2023-02-01T02:08:29;3.60;99.90
21563;DHT22;10942;47.894;11.424;2023-02-01T02:10:55;3.60;99.90
21563;DHT22;10942;47.894;11.424;2023-02-01T02:13:36;3.60;99.90
21563;DHT22;10942;47.894;11.424;2023-02-01T02:22:34;3.50;99.90
21563;DHT22;10942;47.894;11.424;2023-02-01T02:37:42;3.60;99.90
21563;DHT22;10942;47.894;11.424;2023-02-01T02:45:40;3.60;99.90
21563;DHT22;10942;47.894;11.424;2023-02-01T02:48:35;3.50;99.90
21563;DHT22;10942;47.894;11.424;2023-02-01T02:51:09;3.50;99.90
21563;DHT22;10942;47.894;11.424;2023-02-01T02:54:13;3.30;99.90
21563;DHT22;10942;47.894;11.424;2023-02-01T02:57:02;3.40;99.90
21563;DHT22;10942;47.894;11.424;2023-02-01T02:59:48;3.30;99.90
21563;DHT22;10942;47.894;11.424;2023-02-01T03:02:33;3.30;99.90
21563;DHT22;10942;47.894;11.424;2023-02-01T03:05:18;3.10;99.90
21563;DHT22;10942;47.894;11.424;2023-02-01T03:07:55;3.10;99.90
21563;DHT22;10942;47.894;11.424;2023-02-01T03:13:27;3.10;99.90
21563;DHT22;10942;47.894;11.424;2023-02-01T03:18:40;3.10;99.90
21563;DHT22;10942;47.894;11.424;2023-02-01T03:21:12;3.10;99.90
21563;DHT22;10942;47.894;11.424;2023-02-01T03:23:41;3.00;99.90
21563;DHT22;10942;47.894;11.424;2023-02-01T03:26:12;2.90;99.90
21563;DHT22;10942;47.894;11.424;2023-02-01T03:28:43;3.00;99.90
21563;DHT22;10942;47.894;11.424;2023-02-01T03:31:10;3.00;99.90
21563;DHT22;10942;47.894;11.424;2023-02-01T03:33:36;3.00;99.90
21563;DHT22;10942;47.894;11.424;2023-02-01T03:36:30;3.00;99.90
21563;DHT22;10942;47.894;11.424;2023-02-01T03:39:15;3.00;99.90
21563;DHT22;10942;47.894;11.424;2023-02-01T03:42:27;3.10;99.90
21563;DHT22;10942;47.894;11.424;2023-02-01T03:44:58;3.10;99.90
21563;DHT22;10942;47.894;11.424;2023-02-01T03:47:29;3.10;99.90
21563;DHT22;10942;47.894;11.424;2023-02-01T03:50:04;3.10;99.90
21563;DHT22;10942;47.894;11.424;2023-02-01T03:52:42;3.10;99.90
21563;DHT22;10942;47.894;11.424;2023-02-01T03:55:12;3.10;99.90
21563;DHT22;10942;47.894;11.424;2023-02-01T03:57:45;3.20;99.90
21563;DHT22;10942;47.894;11.424;2023-02-01T04:00:22;3.20;99.90
21563;DHT22;10942;47.894;11.424;2023-02-01T04:02:49;3.20;99.90
21563;DHT22;10942;47.894;11.424;2023-02-01T04:05:15;3.10;99.90
21563;DHT22;10942;47.894;11.424;2023-02-01T04:07:48;3.10;99.90
21563;DHT22;10942;47.894;11.424;2023-02-01T04:10:14;3.10;99.90
21563;DHT22;10942;47.894;11.424;2023-02-01T04:12:40;3.20;99.90
21563;DHT22;10942;47.894;11.424;2023-02-01T04:15:06;3.20;99.90
21563;DHT22;10942;47.894;11.424;2023-02-01T04:17:32;3.10;99.90
21563;DHT22;10942;47.894;11.424;2023-02-01T04:19:58;3.10;99.90
21563;DHT22;10942;47.894;11.424;2023-02-01T04:22:24;3.20;99.90
21563;DHT22;10942;47.894;11.424;2023-02-01T04:24:49;3.10;99.90
21563;DHT22;10942;47.894;11.424;2023-02-01T04:27:15;3.20;99.90
21563;DHT22;10942;47.894;11.424;2023-02-01T04:29:41;3.20;99.90
21563;DHT22;10942;47.894;11.424;2023-02-01T04:32:07;3.20;99.90
21563;DHT22;10942;47.894;11.424;2023-02-01T04:34:32;3.20;99.90
21563;DHT22;10942;47.894;11.424;2023-02-01T04:36:58;3.20;99.90
21563;DHT22;10942;47.894;11.424;2023-02-01T04:39:24;3.20;99.90
21563;DHT22;10942;47.894;11.424;2023-02-01T04:41:50;3.30;99.90
21563;DHT22;10942;47.894;11.424;2023-02-01T04:44:17;3.30;99.90
21563;DHT22;10942;47.894;11.424;2023-02-01T04:46:45;3.20;99.90
21563;DHT22;10942;47.894;11.424;2023-02-01T04:49:12;3.30;99.90
21563;DHT22;10942;47.894;11.424;2023-02-01T04:51:38;3.30;99.90
21563;DHT22;10942;47.894;11.424;2023-02-01T04:54:03;3.30;99.90
21563;DHT22;10942;47.894;11.424;2023-02-01T04:56:29;3.40;99.90
21563;DHT22;10942;47.894;11.424;2023-02-01T04:58:55;3.30;99.90
21563;DHT22;10942;47.894;11.424;2023-02-01T05:01:22;3.40;99.90
21563;DHT22;10942;47.894;11.424;2023-02-01T05:03:50;3.30;99.90
21563;DHT22;10942;47.894;11.424;2023-02-01T05:06:16;3.30;99.90
21563;DHT22;10942;47.894;11.424;2023-02-01T05:08:41;3.30;99.90
21563;DHT22;10942;47.894;11.424;2023-02-01T05:11:07;3.30;99.90
21563;DHT22;10942;47.894;11.424;2023-02-01T05:13:53;3.30;99.90
21563;DHT22;10942;47.894;11.424;2023-02-01T05:16:18;3.30;99.90
21563;DHT22;10942;47.894;11.424;2023-02-01T05:18:44;3.30;99.90
21563;DHT22;10942;47.894;11.424;2023-02-01T05:21:10;3.30;99.90
21563;DHT22;10942;47.894;11.424;2023-02-01T05:23:36;3.20;99.90
21563;DHT22;10942;47.894;11.424;2023-02-01T05:26:21;3.30;99.90
21563;DHT22;10942;47.894;11.424;2023-02-01T05:28:47;3.20;99.90
21563;DHT22;10942;47.894;11.424;2023-02-01T05:31:13;3.20;99.90
21563;DHT22;10942;47.894;11.424;2023-02-01T05:33:39;3.30;99.90
21563;DHT22;10942;47.894;11.424;2023-02-01T05:36:04;3.30;99.90
21563;DHT22;10942;47.894;11.424;2023-02-01T05:38:30;3.20;99.90
21563;DHT22;10942;47.894;11.424;2023-02-01T05:40:56;3.20;99.90
21563;DHT22;10942;47.894;11.424;2023-02-01T05:43:22;3.30;99.90
21563;DHT22;10942;47.894;11.424;2023-02-01T05:45:47;3.30;99.90
21563;DHT22;10942;47.894;11.424;2023-02-01T05:48:13;3.20;99.90
21563;DHT22;10942;47.894;11.424;2023-02-01T05:50:39;3.30;99.90
21563;DHT22;10942;47.894;11.424;2023-02-01T05:53:08;3.30;99.90
21563;DHT22;10942;47.894;11.424;2023-02-01T05:55:34;3.30;99.90
21563;DHT22;10942;47.894;11.424;2023-02-01T05:57:59;3.30;99.90
21563;DHT22;10942;47.894;11.424;2023-02-01T06:00:25;3.30;99.90
21563;DHT22;10942;47.894;11.424;2023-02-01T06:02:51;3.40;99.90
21563;DHT22;10942;47.894;11.424;2023-02-01T06:05:16;3.40;99.90
21563;DHT22;10942;47.894;11.424;2023-02-01T06:07:42;3.30;99.90
21563;DHT22;10942;47.894;11.424;2023-02-01T06:10:09;3.30;99.90
21563;DHT22;10942;47.894;11.424;2023-02-01T06:12:35;3.30;99.90
21563;DHT22;10942;47.894;11.424;2023-02-01T06:15:00;3.30;99.90
21563;DHT22;10942;47.894;11.424;2023-02-01T06:17:26;3.30;99.90
21563;DHT22;10942;47.894;11.424;2023-02-01T06:19:52;3.30;99.90
21563;DHT22;10942;47.894;11.424;2023-02-01T06:22:17;3.30;99.90
21563;DHT22;10942;47.894;11.424;2023-02-01T06:24:43;3.30;99.90
21563;DHT22;10942;47.894;11.424;2023-02-01T06:27:09;3.30;99.90
21563;DHT22;10942;47.894;11.424;2023-02-01T06:29:35;3.40;99.90
21563;DHT22;10942;47.894;11.424;2023-02-01T06:32:01;3.30;99.90
21563;DHT22;10942;47.894;11.424;2023-02-01T06:34:28;3.30;99.90
21563;DHT22;10942;47.894;11.424;2023-02-01T06:36:54;3.30;99.90
21563;DHT22;10942;47.894;11.424;2023-02-01T06:39:20;3.40;99.90
21563;DHT22;10942;47.894;11.424;2023-02-01T06:41:49;3.40;99.90
21563;DHT22;10942;47.894;11.424;2023-02-01T06:44:16;3.40;99.90
21563;DHT22;10942;47.894;11.424;2023-02-01T06:46:42;3.40;99.90
21563;DHT22;10942;47.894;11.424;2023-02-01T06:49:08;3.40;99.90
21563;DHT22;10942;47.894;11.424;2023-02-01T06:51:34;3.40;99.90
21563;DHT22;10942;47.894;11.424;2023-02-01T06:54:00;3.40;99.90
21563;DHT22;10942;47.894;11.424;2023-02-01T06:56:26;3.50;99.90
21563;DHT22;10942;47.894;11.424;2023-02-01T06:58:52;3.40;99.90
21563;DHT22;10942;47.894;11.424;2023-02-01T07:01:18;3.40;99.90
21563;DHT22;10942;47.894;11.424;2023-02-01T07:03:47;3.40;99.90
21563;DHT22;10942;47.894;11.424;2023-02-01T07:06:13;3.40;99.90
21563;DHT22;10942;47.894;11.424;2023-02-01T07:08:39;3.30;99.90
21563;DHT22;10942;47.894;11.424;2023-02-01T07:11:10;3.40;99.90
21563;DHT22;10942;47.894;11.424;2023-02-01T07:13:36;3.40;99.90
21563;DHT22;10942;47.894;11.424;2023-02-01T07:16:08;3.40;99.90
21563;DHT22;10942;47.894;11.424;2023-02-01T07:18:34;3.40;99.90
21563;DHT22;10942;47.894;11.424;2023-02-01T07:21:00;3.40;99.90
21563;DHT22;10942;47.894;11.424;2023-02-01T07:23:26;3.40;99.90
21563;DHT22;10942;47.894;11.424;2023-02-01T07:25:57;3.40;99.90
21563;DHT22;10942;47.894;11.424;2023-02-01T07:28:24;3.30;99.90
21563;DHT22;10942;47.894;11.424;2023-02-01T07:30:50;3.30;99.90
21563;DHT22;10942;47.894;11.424;2023-02-01T07:33:20;3.40;99.90
21563;DHT22;10942;47.894;11.424;2023-02-01T07:35:47;3.40;99.90
21563;DHT22;10942;47.894;11.424;2023-02-01T07:38:13;3.40;99.90
21563;DHT22;10942;47.894;11.424;2023-02-01T07:40:39;3.40;99.90
21563;DHT22;10942;47.894;11.424;2023-02-01T07:43:05;3.40;99.90
21563;DHT22;10942;47.894;11.424;2023-02-01T07:45:34;3.40;99.90
21563;DHT22;10942;47.894;11.424;2023-02-01T07:48:00;3.40;99.90
21563;DHT22;10942;47.894;11.424;2023-02-01T07:50:26;3.40;99.90
21563;DHT22;10942;47.894;11.424;2023-02-01T07:52:52;3.50;99.90
21563;DHT22;10942;47.894;11.424;2023-02-01T07:55:19;3.50;99.90
21563;DHT22;10942;47.894;11.424;2023-02-01T07:57:45;3.50;99.90
21563;DHT22;10942;47.894;11.424;2023-02-01T08:00:12;3.50;99.90
21563;DHT22;10942;47.894;11.424;2023-02-01T08:02:59;3.50;99.90
21563;DHT22;10942;47.894;11.424;2023-02-01T08:05:26;3.50;99.90
21563;DHT22;10942;47.894;11.424;2023-02-01T08:07:52;3.60;99.90
21563;DHT22;10942;47.894;11.424;2023-02-01T08:10:18;3.60;99.90
21563;DHT22;10942;47.894;11.424;2023-02-01T08:12:45;3.60;99.90
21563;DHT22;10942;47.894;11.424;2023-02-01T08:15:18;3.60;99.90
21563;DHT22;10942;47.894;11.424;2023-02-01T08:17:50;3.60;99.90
21563;DHT22;10942;47.894;11.424;2023-02-01T08:20:19;3.60;99.90
21563;DHT22;10942;47.894;11.424;2023-02-01T08:22:47;3.70;99.90
21563;DHT22;10942;47.894;11.424;2023-02-01T08:25:12;3.60;99.90
21563;DHT22;10942;47.894;11.424;2023-02-01T08:27:38;3.60;99.90
21563;DHT22;10942;47.894;11.424;2023-02-01T08:30:05;3.70;99.90
21563;DHT22;10942;47.894;11.424;2023-02-01T08:32:33;3.70;99.90
21563;DHT22;10942;47.894;11.424;2023-02-01T08:34:58;3.70;99.90
21563;DHT22;10942;47.894;11.424;2023-02-01T08:37:24;3.70;99.90
21563;DHT22;10942;47.894;11.424;2023-02-01T08:39:50;3.70;99.90
21563;DHT22;10942;47.894;11.424;2023-02-01T08:42:16;3.80;99.90
21563;DHT22;10942;47.894;11.424;2023-02-01T08:45:01;3.80;99.90
21563;DHT22;10942;47.894;11.424;2023-02-01T08:47:28;3.80;99.90
21563;DHT22;10942;47.894;11.424;2023-02-01T08:49:54;3.80;99.90
21563;DHT22;10942;47.894;11.424;2023-02-01T08:52:20;3.80;99.90
21563;DHT22;10942;47.894;11.424;2023-02-01T08:54:46;3.80;99.90
21563;DHT22;10942;47.894;11.424;2023-02-01T08:57:12;3.90;99.90
21563;DHT22;10942;47.894;11.424;2023-02-01T08:59:37;3.90;99.90
21563;DHT22;10942;47.894;11.424;2023-02-01T09:02:03;3.90;99.90
21563;DHT22;10942;47.894;11.424;2023-02-01T09:04:29;3.90;99.90
21563;DHT22;10942;47.894;11.424;2023-02-01T09:06:55;4.00;99.90
21563;DHT22;10942;47.894;11.424;2023-02-01T09:09:22;4.00;99.90
21563;DHT22;10942;47.894;11.424;2023-02-01T09:11:48;4.00;99.90
21563;DHT22;10942;47.894;11.424;2023-02-01T09:14:16;4.10;99.90
21563;DHT22;10942;47.894;11.424;2023-02-01T09:16:41;4.20;99.90
21563;DHT22;10942;47.894;11.424;2023-02-01T09:19:07;4.30;99.90
21563;DHT22;10942;47.894;11.424;2023-02-01T09:21:33;4.40;99.90
21563;DHT22;10942;47.894;11.424;2023-02-01T09:23:59;4.30;99.90
21563;DHT22;10942;47.894;11.424;2023-02-01T09:26:24;4.40;99.90
21563;DHT22;10942;47.894;11.424;2023-02-01T09:28:51;4.50;99.90
21563;DHT22;10942;47.894;11.424;2023-02-01T09:31:17;4.60;99.90
21563;DHT22;10942;47.894;11.424;2023-02-01T09:33:43;4.60;99.90
21563;DHT22;10942;47.894;11.424;2023-02-01T09:36:09;4.60;99.90
21563;DHT22;10942;47.894;11.424;2023-02-01T09:38:34;4.50;99.90
21563;DHT22;10942;47.894;11.424;2023-02-01T09:41:00;4.50;99.90
21563;DHT22;10942;47.894;11.424;2023-02-01T09:43:58;4.60;99.90
21563;DHT22;10942;47.894;11.424;2023-02-01T09:46:32;4.60;99.90
21563;DHT22;10942;47.894;11.424;2023-02-01T09:49:11;4.70;99.90
21563;DHT22;10942;47.894;11.424;2023-02-01T09:51:40;4.60;99.90
21563;DHT22;10942;47.894;11.424;2023-02-01T09:54:46;4.70;99.90
21563;DHT22;10942;47.894;11.424;2023-02-01T09:57:25;4.80;99.90
21563;DHT22;10942;47.894;11.424;2023-02-01T10:00:00;4.80;99.90
21563;DHT22;10942;47.894;11.424;2023-02-01T10:02:39;4.90;99.90
21563;DHT22;10942;47.894;11.424;2023-02-01T10:05:05;5.00;99.90
21563;DHT22;10942;47.894;11.424;2023-02-01T10:10:43;4.90;99.90
21563;DHT22;10942;47.894;11.424;2023-02-01T10:22:23;4.90;99.90
21563;DHT22;10942;47.894;11.424;2023-02-01T10:24:59;4.80;99.90
21563;DHT22;10942;47.894;11.424;2023-02-01T10:27:36;4.90;99.90
21563;DHT22;10942;47.894;11.424;2023-02-01T10:30:23;4.80;99.90
21563;DHT22;10942;47.894;11.424;2023-02-01T10:32:54;4.90;99.90
21563;DHT22;10942;47.894;11.424;2023-02-01T10:35:38;5.00;99.90
21563;DHT22;10942;47.894;11.424;2023-02-01T10:38:17;5.10;99.90
21563;DHT22;10942;47.894;11.424;2023-02-01T10:40:44;5.00;99.90
21563;DHT22;10942;47.894;11.424;2023-02-01T10:43:10;5.00;99.90
21563;DHT22;10942;47.894;11.424;2023-02-01T10:45:37;5.00;99.90
21563;DHT22;10942;47.894;11.424;2023-02-01T10:48:05;5.10;99.90
21563;DHT22;10942;47.894;11.424;2023-02-01T10:51:00;5.10;99.90
21563;DHT22;10942;47.894;11.424;2023-02-01T10:56:06;5.10;99.90
21563;DHT22;10942;47.894;11.424;2023-02-01T10:58:32;5.20;99.90
21563;DHT22;10942;47.894;11.424;2023-02-01T11:01:09;5.30;99.90
21563;DHT22;10942;47.894;11.424;2023-02-01T11:08:50;5.40;99.90
21563;DHT22;10942;47.894;11.424;2023-02-01T11:11:17;5.40;99.90
21563;DHT22;10942;47.894;11.424;2023-02-01T11:13:43;5.40;99.90
21563;DHT22;10942;47.894;11.424;2023-02-01T11:16:14;5.50;99.90
21563;DHT22;10942;47.894;11.424;2023-02-01T11:18:42;5.40;99.90
21563;DHT22;10942;47.894;11.424;2023-02-01T11:21:09;5.40;99.90
21563;DHT22;10942;47.894;11.424;2023-02-01T11:23:42;5.40;99.90
21563;DHT22;10942;47.894;11.424;2023-02-01T11:26:15;5.40;99.90
21563;DHT22;10942;47.894;11.424;2023-02-01T11:28:55;5.30;99.90
21563;DHT22;10942;47.894;11.424;2023-02-01T11:31:24;5.10;99.90
21563;DHT22;10942;47.894;11.424;2023-02-01T11:34:00;5.10;99.90
21563;DHT22;10942;47.894;11.424;2023-02-01T11:36:28;5.00;99.90
21563;DHT22;10942;47.894;11.424;2023-02-01T11:39:25;5.00;99.90
21563;DHT22;10942;47.894;11.424;2023-02-01T11:42:15;5.00;99.90
21563;DHT22;10942;47.894;11.424;2023-02-01T11:44:45;5.00;99.90
21563;DHT22;10942;47.894;11.424;2023-02-01T11:47:24;4.90;99.90
21563;DHT22;10942;47.894;11.424;2023-02-01T11:49:56;4.90;99.90
21563;DHT22;10942;47.894;11.424;2023-02-01T11:53:01;4.90;99.90
21563;DHT22;10942;47.894;11.424;2023-02-01T11:58:42;4.90;99.90
21563;DHT22;10942;47.894;11.424;2023-02-01T12:06:50;4.70;99.90
21563;DHT22;10942;47.894;11.424;2023-02-01T12:12:16;4.80;99.90
21563;DHT22;10942;47.894;11.424;2023-02-01T12:20:15;4.90;99.90
21563;DHT22;10942;47.894;11.424;2023-02-01T12:36:40;5.20;99.90
21563;DHT22;10942;47.894;11.424;2023-02-01T12:47:12;4.80;99.90
21563;DHT22;10942;47.894;11.424;2023-02-01T12:52:49;4.70;99.90
21563;DHT22;10942;47.894;11.424;2023-02-01T12:55:22;4.80;99.90
21563;DHT22;10942;47.894;11.424;2023-02-01T12:58:03;4.70;99.90
21563;DHT22;10942;47.894;11.424;2023-02-01T13:00:38;4.80;99.90
21563;DHT22;10942;47.894;11.424;2023-02-01T13:03:40;4.80;99.90
21563;DHT22;10942;47.894;11.424;2023-02-01T13:06:17;4.90;99.90
21563;DHT22;10942;47.894;11.424;2023-02-01T13:08:56;4.90;99.90
21563;DHT22;10942;47.894;11.424;2023-02-01T13:11:29;4.90;99.90
21563;DHT22;10942;47.894;11.424;2023-02-01T13:14:00;5.00;99.90
21563;DHT22;10942;47.894;11.424;2023-02-01T13:16:28;4.90;99.90
21563;DHT22;10942;47.894;11.424;2023-02-01T13:21:57;4.90;99.90
21563;DHT22;10942;47.894;11.424;2023-02-01T13:24:39;5.00;99.90
21563;DHT22;10942;47.894;11.424;2023-02-01T13:27:05;5.10;99.90
21563;DHT22;10942;47.894;11.424;2023-02-01T13:29:33;5.20;99.90
21563;DHT22;10942;47.894;11.424;2023-02-01T13:35:22;5.10;99.90
21563;DHT22;10942;47.894;11.424;2023-02-01T13:38:03;5.10;99.90
21563;DHT22;10942;47.894;11.424;2023-02-01T13:40:44;5.20;99.90
21563;DHT22;10942;47.894;11.424;2023-02-01T13:43:19;5.20;99.90
21563;DHT22;10942;47.894;11.424;2023-02-01T13:45:53;5.10;99.90
21563;DHT22;10942;47.894;11.424;2023-02-01T13:48:23;5.00;99.90
21563;DHT22;10942;47.894;11.424;2023-02-01T13:50:55;5.10;99.90
21563;DHT22;10942;47.894;11.424;2023-02-01T13:53:32;5.10;99.90
21563;DHT22;10942;47.894;11.424;2023-02-01T13:56:07;5.00;99.90
21563;DHT22;10942;47.894;11.424;2023-02-01T13:58:37;5.00;99.90
21563;DHT22;10942;47.894;11.424;2023-02-01T14:04:01;5.00;99.90
21563;DHT22;10942;47.894;11.424;2023-02-01T14:19:27;4.90;99.90
21563;DHT22;10942;47.894;11.424;2023-02-01T14:21:58;4.90;99.90
21563;DHT22;10942;47.894;11.424;2023-02-01T14:24:33;4.90;99.90
21563;DHT22;10942;47.894;11.424;2023-02-01T14:27:01;4.90;99.90
21563;DHT22;10942;47.894;11.424;2023-02-01T14:29:36;4.80;99.90
21563;DHT22;10942;47.894;11.424;2023-02-01T14:32:06;4.80;99.90
21563;DHT22;10942;47.894;11.424;2023-02-01T14:44:44;4.70;99.90
21563;DHT22;10942;47.894;11.424;2023-02-01T14:50:03;4.60;99.90
21563;DHT22;10942;47.894;11.424;2023-02-01T14:58:02;4.40;99.90
21563;DHT22;10942;47.894;11.424;2023-02-01T15:00:31;4.50;99.90
21563;DHT22;10942;47.894;11.424;2023-02-01T15:03:15;4.50;99.90
21563;DHT22;10942;47.894;11.424;2023-02-01T15:05:42;4.50;99.90
21563;DHT22;10942;47.894;11.424;2023-02-01T15:08:29;4.50;99.90
21563;DHT22;10942;47.894;11.424;2023-02-01T15:10:57;4.50;99.90
21563;DHT22;10942;47.894;11.424;2023-02-01T15:13:26;4.50;99.90
21563;DHT22;10942;47.894;11.424;2023-02-01T15:16:13;4.50;99.90
21563;DHT22;10942;47.894;11.424;2023-02-01T15:18:40;4.60;99.90
21563;DHT22;10942;47.894;11.424;2023-02-01T15:21:18;4.40;99.90
21563;DHT22;10942;47.894;11.424;2023-02-01T15:23:44;4.50;99.90
21563;DHT22;10942;47.894;11.424;2023-02-01T15:26:27;4.40;99.90
21563;DHT22;10942;47.894;11.424;2023-02-01T15:28:53;4.40;99.90
21563;DHT22;10942;47.894;11.424;2023-02-01T15:31:35;4.50;99.90
21563;DHT22;10942;47.894;11.424;2023-02-01T15:34:02;4.40;99.90
21563;DHT22;10942;47.894;11.424;2023-02-01T15:36:27;4.40;99.90
21563;DHT22;10942;47.894;11.424;2023-02-01T15:41:49;4.30;99.90
21563;DHT22;10942;47.894;11.424;2023-02-01T15:46:52;4.30;99.90
21563;DHT22;10942;47.894;11.424;2023-02-01T15:51:52;4.30;99.90
21563;DHT22;10942;47.894;11.424;2023-02-01T15:54:26;4.30;99.90
21563;DHT22;10942;47.894;11.424;2023-02-01T15:56:54;4.40;99.90
21563;DHT22;10942;47.894;11.424;2023-02-01T15:59:28;4.40;99.90
21563;DHT22;10942;47.894;11.424;2023-02-01T16:01:55;4.30;99.90
21563;DHT22;10942;47.894;11.424;2023-02-01T16:04:29;4.20;99.90
21563;DHT22;10942;47.894;11.424;2023-02-01T16:07:03;4.20;99.90
21563;DHT22;10942;47.894;11.424;2023-02-01T16:09:57;4.20;99.90
21563;DHT22;10942;47.894;11.424;2023-02-01T16:12:30;4.20;99.90
21563;DHT22;10942;47.894;11.424;2023-02-01T16:14:56;4.20;99.90
21563;DHT22;10942;47.894;11.424;2023-02-01T16:17:22;4.20;99.90
21563;DHT22;10942;47.894;11.424;2023-02-01T16:19:48;4.10;99.90
21563;DHT22;10942;47.894;11.424;2023-02-01T16:22:14;4.10;99.90
21563;DHT22;10942;47.894;11.424;2023-02-01T16:24:39;4.10;99.90
21563;DHT22;10942;47.894;11.424;2023-02-01T16:27:05;4.10;99.90
21563;DHT22;10942;47.894;11.424;2023-02-01T16:29:33;4.00;99.90
21563;DHT22;10942;47.894;11.424;2023-02-01T16:31:59;4.00;99.90
21563;DHT22;10942;47.894;11.424;2023-02-01T16:34:25;4.10;99.90
21563;DHT22;10942;47.894;11.424;2023-02-01T16:36:51;4.00;99.90
21563;DHT22;10942;47.894;11.424;2023-02-01T16:39:19;4.00;99.90
21563;DHT22;10942;47.894;11.424;2023-02-01T16:41:45;4.00;99.90
21563;DHT22;10942;47.894;11.424;2023-02-01T16:44:11;4.00;99.90
21563;DHT22;10942;47.894;11.424;2023-02-01T16:46:44;4.00;99.90
21563;DHT22;10942;47.894;11.424;2023-02-01T16:49:20;4.00;99.90
21563;DHT22;10942;47.894;11.424;2023-02-01T16:51:48;4.00;99.90
21563;DHT22;10942;47.894;11.424;2023-02-01T16:54:14;3.90;99.90
21563;DHT22;10942;47.894;11.424;2023-02-01T16:56:40;4.00;99.90
21563;DHT22;10942;47.894;11.424;2023-02-01T16:59:07;4.00;99.90
21563;DHT22;10942;47.894;11.424;2023-02-01T17:01:34;4.00;99.90
21563;DHT22;10942;47.894;11.424;2023-02-01T17:03:59;4.00;99.90
21563;DHT22;10942;47.894;11.424;2023-02-01T17:06:26;4.00;99.90
21563;DHT22;10942;47.894;11.424;2023-02-01T17:08:57;4.00;99.90
21563;DHT22;10942;47.894;11.424;2023-02-01T17:11:27;4.00;99.90
21563;DHT22;10942;47.894;11.424;2023-02-01T17:13:56;4.00;99.90
21563;DHT22;10942;47.894;11.424;2023-02-01T17:16:28;4.00;99.90
21563;DHT22;10942;47.894;11.424;2023-02-01T17:18:59;4.00;99.90
21563;DHT22;10942;47.894;11.424;2023-02-01T17:21:26;4.00;99.90
21563;DHT22;10942;47.894;11.424;2023-02-01T17:23:53;4.10;99.90
21563;DHT22;10942;47.894;11.424;2023-02-01T17:26:19;4.00;99.90
21563;DHT22;10942;47.894;11.424;2023-02-01T17:28:45;4.00;99.90
21563;DHT22;10942;47.894;11.424;2023-02-01T17:31:15;4.10;99.90
21563;DHT22;10942;47.894;11.424;2023-02-01T17:33:41;4.10;99.90
21563;DHT22;10942;47.894;11.424;2023-02-01T17:36:14;4.10;99.90
21563;DHT22;10942;47.894;11.424;2023-02-01T17:38:40;4.10;99.90
21563;DHT22;10942;47.894;11.424;2023-02-01T17:41:12;4.10;99.90
21563;DHT22;10942;47.894;11.424;2023-02-01T17:43:38;4.10;99.90
21563;DHT22;10942;47.894;11.424;2023-02-01T17:46:15;4.00;99.90
21563;DHT22;10942;47.894;11.424;2023-02-01T17:48:43;4.00;99.90
21563;DHT22;10942;47.894;11.424;2023-02-01T17:51:18;4.00;99.90
21563;DHT22;10942;47.894;11.424;2023-02-01T17:53:44;4.00;99.90
21563;DHT22;10942;47.894;11.424;2023-02-01T17:56:15;4.00;99.90
21563;DHT22;10942;47.894;11.424;2023-02-01T17:58:42;4.00;99.90
21563;DHT22;10942;47.894;11.424;2023-02-01T18:01:20;4.10;99.90
21563;DHT22;10942;47.894;11.424;2023-02-01T18:03:47;4.10;99.90
21563;DHT22;10942;47.894;11.424;2023-02-01T18:06:18;4.00;99.90
21563;DHT22;10942;47.894;11.424;2023-02-01T18:08:44;4.00;99.90